createdAt,value
2019-04-25T00:01:52.312Z,0.70
2019-04-25T00:04:22.575Z,0.60
2019-04-25T00:06:52.127Z,0.90
2019-04-25T00:09:22.317Z,3.80
2019-04-25T00:11:52.322Z,1.60
2019-04-25T00:14:22.444Z,0.93
2019-04-25T00:16:52.500Z,0.80
2019-04-25T00:19:21.880Z,0.60
2019-04-25T00:21:52.099Z,0.63
2019-04-25T00:24:23.849Z,0.80
2019-04-25T00:26:53.554Z,0.73
2019-04-25T00:29:22.172Z,0.70
2019-04-25T00:31:51.365Z,0.93
2019-04-25T00:34:19.855Z,1.20
2019-04-25T00:36:48.671Z,0.90
2019-04-25T00:39:17.208Z,1.00
2019-04-25T00:41:46.402Z,0.83
2019-04-25T00:44:15.082Z,0.80
2019-04-25T00:46:47.830Z,1.20
2019-04-25T00:49:13.599Z,0.87
2019-04-25T00:51:43.463Z,0.67
2019-04-25T00:54:12.270Z,0.90
2019-04-25T00:56:43.289Z,0.80
2019-04-25T00:59:15.547Z,0.80
2019-04-25T01:01:52.979Z,0.70
2019-04-25T01:04:23.411Z,0.70
2019-04-25T01:06:52.895Z,0.70
2019-04-25T01:09:22.230Z,0.70
2019-04-25T01:11:52.095Z,1.20
2019-04-25T01:14:21.805Z,1.57
2019-04-25T01:16:51.244Z,0.90
2019-04-25T01:19:20.694Z,1.23
2019-04-25T01:21:49.223Z,1.10
2019-04-25T01:24:18.075Z,0.90
2019-04-25T01:26:47.490Z,1.10
2019-04-25T01:29:16.160Z,0.87
2019-04-25T01:31:44.754Z,0.97
2019-04-25T01:34:14.270Z,1.10
2019-04-25T01:36:44.400Z,1.07
2019-04-25T01:39:26.353Z,0.80
2019-04-25T01:42:08.293Z,1.00
2019-04-25T01:44:38.336Z,1.10
2019-04-25T01:47:06.871Z,1.27
2019-04-25T01:49:35.285Z,1.03
2019-04-25T01:52:04.952Z,1.07
2019-04-25T01:54:33.946Z,0.90
2019-04-25T01:57:04.177Z,1.00
2019-04-25T01:59:33.797Z,1.20
2019-04-25T02:02:03.754Z,1.13
2019-04-25T02:04:34.153Z,1.00
2019-04-25T02:07:03.632Z,1.17
2019-04-25T02:09:33.723Z,1.10
2019-04-25T02:12:09.353Z,1.90
2019-04-25T02:14:37.820Z,1.00
2019-04-25T02:17:06.212Z,0.87
2019-04-25T02:19:35.758Z,1.27
2019-04-25T02:22:04.615Z,0.90
2019-04-25T02:24:33.863Z,1.20
2019-04-25T02:27:04.412Z,1.00
2019-04-25T02:29:33.279Z,1.10
2019-04-25T02:32:06.999Z,0.83
2019-04-25T02:34:34.351Z,1.20
2019-04-25T02:37:07.140Z,1.03
2019-04-25T02:39:36.737Z,1.37
2019-04-25T02:42:07.847Z,1.00
2019-04-25T02:44:36.426Z,1.10
2019-04-25T02:47:09.199Z,1.40
2019-04-25T02:49:41.880Z,1.30
2019-04-25T02:52:20.644Z,1.40
2019-04-25T02:54:49.065Z,0.93
2019-04-25T02:57:17.452Z,1.40
2019-04-25T02:59:45.852Z,1.10
2019-04-25T03:02:15.392Z,1.30
2019-04-25T03:04:44.614Z,1.10
2019-04-25T03:07:17.007Z,1.20
2019-04-25T03:09:45.059Z,0.80
2019-04-25T03:12:26.936Z,1.33
2019-04-25T03:14:44.655Z,1.10
2019-04-25T03:17:14.281Z,0.93
2019-04-25T03:19:44.619Z,1.03
2019-04-25T03:22:15.254Z,1.13
2019-04-25T03:24:45.721Z,1.60
2019-04-25T03:27:14.251Z,1.23
2019-04-25T03:29:44.331Z,1.13
2019-04-25T03:32:16.396Z,1.30
2019-04-25T03:34:43.490Z,1.30
2019-04-25T03:37:13.634Z,2.27
2019-04-25T03:39:43.680Z,2.03
2019-04-25T03:42:12.141Z,1.57
2019-04-25T03:44:40.537Z,1.70
2019-04-25T03:47:09.701Z,2.00
2019-04-25T03:49:38.319Z,1.60
2019-04-25T03:52:06.727Z,1.23
2019-04-25T03:54:35.140Z,1.63
2019-04-25T03:57:05.272Z,1.10
2019-04-25T03:59:33.716Z,1.03
2019-04-25T04:02:03.194Z,1.30
2019-04-25T04:04:33.504Z,1.50
2019-04-25T04:07:05.827Z,1.30
2019-04-25T04:09:33.702Z,2.60
2019-04-25T04:12:04.291Z,1.33
2019-04-25T04:14:33.826Z,1.70
2019-04-25T04:17:10.712Z,1.87
2019-04-25T04:19:45.259Z,1.87
2019-04-25T04:22:20.983Z,1.53
2019-04-25T04:24:51.030Z,1.90
2019-04-25T04:27:19.448Z,2.23
2019-04-25T04:29:47.910Z,2.63
2019-04-25T04:32:17.279Z,2.47
2019-04-25T04:34:45.906Z,1.63
2019-04-25T04:37:15.825Z,1.90
2019-04-25T04:40:05.003Z,3.00
2019-04-25T04:42:33.719Z,2.50
2019-04-25T04:45:03.595Z,2.47
2019-04-25T04:47:33.287Z,2.20
2019-04-25T04:50:03.753Z,2.27
2019-04-25T04:52:33.994Z,2.27
2019-04-25T04:55:06.384Z,2.53
2019-04-25T04:57:36.174Z,2.20
2019-04-25T05:00:08.031Z,1.90
2019-04-25T05:02:38.059Z,1.97
2019-04-25T05:05:15.748Z,1.70
2019-04-25T05:07:51.602Z,1.53
2019-04-25T05:10:20.137Z,1.83
2019-04-25T05:12:48.555Z,1.93
2019-04-25T05:15:18.227Z,2.00
2019-04-25T05:17:47.292Z,1.90
2019-04-25T05:20:17.462Z,2.37
2019-04-25T05:22:45.867Z,2.77
2019-04-25T05:25:16.256Z,2.60
2019-04-25T05:27:57.768Z,3.40
2019-04-25T05:30:19.374Z,3.80
2019-04-25T05:32:47.876Z,3.40
2019-04-25T05:35:17.803Z,3.53
2019-04-25T05:37:46.319Z,2.70
2019-04-25T05:40:16.225Z,2.97
2019-04-25T05:42:46.710Z,2.73
2019-04-25T05:45:17.520Z,3.50
2019-04-25T05:47:45.839Z,2.60
2019-04-25T05:50:15.680Z,2.13
2019-04-25T05:52:45.990Z,3.10
2019-04-25T05:55:17.553Z,4.27
2019-04-25T05:57:49.627Z,5.07
2019-04-25T06:00:15.250Z,5.70
2019-04-25T06:02:44.295Z,8.80
2019-04-25T06:05:13.847Z,7.33
2019-04-25T06:07:43.245Z,7.17
2019-04-25T06:10:17.383Z,4.67
2019-04-25T06:12:50.890Z,5.00
2019-04-25T06:15:21.683Z,3.37
2019-04-25T06:17:53.414Z,4.10
2019-04-25T06:20:24.684Z,4.07
2019-04-25T06:22:55.621Z,4.23
2019-04-25T06:25:32.099Z,4.00
2019-04-25T06:28:00.386Z,2.27
2019-04-25T06:30:29.686Z,1.50
2019-04-25T06:32:58.689Z,2.03
2019-04-25T06:35:27.574Z,1.23
2019-04-25T06:37:56.037Z,1.10
2019-04-25T06:40:26.316Z,1.70
2019-04-25T06:42:55.569Z,1.10
2019-04-25T06:45:26.680Z,1.30
2019-04-25T06:47:56.863Z,1.60
2019-04-25T06:50:26.222Z,1.90
2019-04-25T06:52:55.430Z,0.70
2019-04-25T06:55:26.003Z,1.23
2019-04-25T06:57:54.060Z,3.53
2019-04-25T07:00:26.256Z,1.23
2019-04-25T07:02:53.247Z,1.13
2019-04-25T07:05:30.589Z,0.90
2019-04-25T07:07:53.459Z,1.03
2019-04-25T07:10:24.177Z,1.00
2019-04-25T07:12:52.121Z,0.87
2019-04-25T07:15:20.641Z,1.27
2019-04-25T07:17:49.123Z,0.93
2019-04-25T07:20:19.057Z,0.80
2019-04-25T07:22:47.469Z,0.90
2019-04-25T07:25:16.257Z,0.93
2019-04-25T07:28:01.349Z,1.10
2019-04-25T07:30:51.632Z,1.07
2019-04-25T07:33:19.419Z,1.00
2019-04-25T07:35:47.809Z,0.90
2019-04-25T07:38:16.228Z,1.07
2019-04-25T07:40:44.620Z,1.20
2019-04-25T07:43:13.458Z,0.60
2019-04-25T07:45:43.467Z,0.87
2019-04-25T07:48:13.822Z,0.77
2019-04-25T07:50:43.821Z,0.83
2019-04-25T07:53:14.252Z,1.60
2019-04-25T07:55:43.281Z,2.10
2019-04-25T07:58:12.071Z,0.80
2019-04-25T08:00:40.468Z,1.00
2019-04-25T08:03:08.951Z,1.23
2019-04-25T08:05:37.880Z,1.10
2019-04-25T08:08:06.409Z,0.90
2019-04-25T08:10:40.619Z,0.80
2019-04-25T08:13:09.038Z,1.00
2019-04-25T08:15:39.080Z,1.20
2019-04-25T08:18:09.261Z,0.80
2019-04-25T08:20:37.790Z,0.90
2019-04-25T08:23:06.359Z,1.07
2019-04-25T08:25:37.710Z,0.73
2019-04-25T08:28:05.024Z,1.23
2019-04-25T08:30:35.265Z,0.87
2019-04-25T08:33:04.160Z,1.43
2019-04-25T08:35:35.171Z,0.97
2019-04-25T08:38:05.876Z,1.10
2019-04-25T08:40:36.979Z,1.10
2019-04-25T08:43:04.842Z,0.93
2019-04-25T08:45:35.277Z,1.17
2019-04-25T08:48:03.694Z,1.83
2019-04-25T08:50:49.815Z,0.80
2019-04-25T08:53:18.218Z,1.00
2019-04-25T08:55:48.245Z,1.00
2019-04-25T08:58:20.696Z,1.10
2019-04-25T09:01:00.684Z,1.20
2019-04-25T09:03:32.343Z,0.80
2019-04-25T09:06:01.189Z,1.10
2019-04-25T09:08:29.624Z,1.03
2019-04-25T09:11:17.433Z,1.20
2019-04-25T09:13:45.841Z,1.70
2019-04-25T09:16:15.487Z,1.40
2019-04-25T09:18:45.227Z,0.93
2019-04-25T09:21:13.875Z,1.10
2019-04-25T09:23:43.717Z,1.10
2019-04-25T09:26:14.159Z,1.00
2019-04-25T09:28:45.290Z,1.00
2019-04-25T09:31:13.985Z,0.90
2019-04-25T09:33:43.856Z,0.83
2019-04-25T09:36:14.152Z,1.20
2019-04-25T09:38:45.108Z,1.10
2019-04-25T09:41:13.881Z,1.20
2019-04-25T09:43:44.218Z,1.53
2019-04-25T09:46:24.320Z,1.00
2019-04-25T09:48:57.114Z,0.90
2019-04-25T09:51:29.864Z,1.00
2019-04-25T09:54:03.522Z,0.90
2019-04-25T09:56:36.671Z,0.90
2019-04-25T09:59:27.252Z,1.30
2019-04-25T10:01:49.505Z,0.87
2019-04-25T10:04:18.341Z,0.97
2019-04-25T10:06:47.568Z,1.10
2019-04-25T10:09:16.234Z,0.90
2019-04-25T10:11:45.407Z,0.83
2019-04-25T10:14:27.069Z,1.10
2019-04-25T10:16:55.462Z,1.27
2019-04-25T10:19:23.871Z,1.20
2019-04-25T10:21:55.021Z,1.10
2019-04-25T10:24:22.464Z,1.00
2019-04-25T10:26:50.927Z,1.20
2019-04-25T10:29:19.330Z,0.83
2019-04-25T10:31:47.771Z,0.83
2019-04-25T10:34:16.286Z,0.90
2019-04-25T10:36:45.432Z,0.80
2019-04-25T10:39:14.636Z,1.03
2019-04-25T10:41:46.104Z,0.93
2019-04-25T10:44:14.148Z,1.13
2019-04-25T10:46:45.692Z,1.10
2019-04-25T10:49:14.483Z,1.90
2019-04-25T10:51:44.751Z,0.90
2019-04-25T10:54:14.550Z,1.10
2019-04-25T10:56:45.744Z,0.97
2019-04-25T10:59:14.495Z,0.93
2019-04-25T11:01:44.703Z,0.90
2019-04-25T11:04:14.910Z,1.27
2019-04-25T11:06:45.337Z,0.90
2019-04-25T11:09:18.167Z,0.90
2019-04-25T11:11:46.555Z,1.00
2019-04-25T11:14:15.035Z,1.10
2019-04-25T11:16:45.567Z,1.00
2019-04-25T11:19:15.330Z,1.43
2019-04-25T11:21:45.278Z,0.90
2019-04-25T11:24:14.370Z,0.60
2019-04-25T11:26:44.675Z,0.70
2019-04-25T11:29:13.320Z,0.70
2019-04-25T11:31:45.726Z,0.90
2019-04-25T11:34:15.009Z,0.80
2019-04-25T11:36:44.000Z,0.80
2019-04-25T11:39:33.649Z,0.73
2019-04-25T11:42:02.281Z,0.90
2019-04-25T11:44:30.753Z,0.83
2019-04-25T11:46:59.148Z,0.80
2019-04-25T11:49:27.622Z,1.10
2019-04-25T11:51:56.150Z,1.00
2019-04-25T11:54:24.631Z,0.80
2019-04-25T11:56:54.718Z,0.80
2019-04-25T11:59:23.581Z,0.77
2019-04-25T12:01:52.349Z,1.03
2019-04-25T12:04:20.900Z,1.13
2019-04-25T12:06:49.292Z,0.80
2019-04-25T12:09:18.929Z,1.03
2019-04-25T12:11:48.530Z,0.60
2019-04-25T12:14:17.379Z,0.93
2019-04-25T12:16:48.470Z,0.90
2019-04-25T12:19:15.917Z,1.00
2019-04-25T12:21:44.703Z,0.87
2019-04-25T12:24:13.700Z,0.80
2019-04-25T12:26:45.293Z,1.00
2019-04-25T12:29:14.216Z,0.57
2019-04-25T12:31:44.230Z,0.87
2019-04-25T12:34:14.171Z,0.60
2019-04-25T12:36:44.195Z,0.60
2019-04-25T12:39:13.992Z,1.00
2019-04-25T12:41:45.575Z,0.50
2019-04-25T12:44:14.386Z,0.83
2019-04-25T12:46:48.434Z,1.07
2019-04-25T12:49:16.958Z,0.80
2019-04-25T12:51:45.489Z,0.90
2019-04-25T12:54:14.929Z,1.67
2019-04-25T12:56:43.444Z,1.00
2019-04-25T12:59:11.851Z,0.97
2019-04-25T13:01:40.316Z,0.83
2019-04-25T13:04:08.715Z,0.90
2019-04-25T13:06:37.139Z,0.80
2019-04-25T13:09:07.076Z,0.80
2019-04-25T13:11:35.665Z,0.83
2019-04-25T13:14:04.116Z,1.00
2019-04-25T13:16:34.149Z,0.97
2019-04-25T13:19:13.561Z,0.60
2019-04-25T13:21:33.428Z,0.90
2019-04-25T13:24:02.969Z,0.90
2019-04-25T13:26:33.715Z,0.93
2019-04-25T13:29:05.123Z,0.67
2019-04-25T13:31:35.335Z,0.77
2019-04-25T13:34:05.897Z,0.90
2019-04-25T13:36:34.781Z,0.90
2019-04-25T13:39:05.557Z,0.70
2019-04-25T13:41:34.058Z,1.00
2019-04-25T13:44:03.549Z,0.93
2019-04-25T13:46:34.196Z,0.87
2019-04-25T13:49:04.265Z,0.93
2019-04-25T13:51:33.286Z,1.17
2019-04-25T13:54:01.857Z,0.83
2019-04-25T13:56:30.688Z,0.93
2019-04-25T13:58:59.264Z,1.10
2019-04-25T14:01:27.712Z,1.30
2019-04-25T14:03:56.142Z,4.17
2019-04-25T14:06:24.706Z,1.13
2019-04-25T14:08:53.498Z,0.90
2019-04-25T14:11:23.943Z,0.70
2019-04-25T14:13:52.615Z,1.10
2019-04-25T14:16:25.340Z,1.13
2019-04-25T14:18:54.439Z,0.67
2019-04-25T14:21:24.776Z,0.60
2019-04-25T14:23:54.092Z,0.97
2019-04-25T14:26:23.007Z,0.90
2019-04-25T14:28:51.420Z,0.87
2019-04-25T14:31:33.586Z,0.80
2019-04-25T14:33:51.743Z,0.90
2019-04-25T14:36:20.311Z,1.00
2019-04-25T14:38:48.735Z,1.03
2019-04-25T14:41:17.131Z,0.80
2019-04-25T14:43:46.492Z,0.77
2019-04-25T14:46:15.006Z,0.80
2019-04-25T14:48:43.419Z,0.87
2019-04-25T14:51:11.810Z,0.70
2019-04-25T14:53:40.235Z,0.87
2019-04-25T14:56:10.265Z,0.80
2019-04-25T14:58:40.251Z,0.90
2019-04-25T15:01:08.739Z,0.73
2019-04-25T15:03:37.126Z,0.90
2019-04-25T15:06:05.601Z,0.70
2019-04-25T15:08:34.066Z,1.17
2019-04-25T15:11:23.124Z,0.70
2019-04-25T15:13:51.654Z,0.80
2019-04-25T15:16:20.144Z,0.87
2019-04-25T15:18:48.526Z,1.00
2019-04-25T15:21:18.760Z,0.87
2019-04-25T15:23:59.405Z,0.70
2019-04-25T15:26:17.266Z,0.90
2019-04-25T15:28:45.696Z,0.70
2019-04-25T15:31:14.165Z,1.40
2019-04-25T15:33:42.566Z,1.20
2019-04-25T15:36:12.613Z,0.80
2019-04-25T15:38:51.382Z,0.80
2019-04-25T15:41:37.316Z,1.00
2019-04-25T15:44:19.796Z,0.73
2019-04-25T15:46:49.840Z,0.80
2019-04-25T15:49:18.235Z,0.80
2019-04-25T15:51:46.645Z,0.80
2019-04-25T15:54:15.064Z,0.90
2019-04-25T15:56:43.446Z,1.10
2019-04-25T15:59:11.927Z,0.80
2019-04-25T16:01:40.332Z,1.03
2019-04-25T16:04:08.748Z,0.93
2019-04-25T16:06:37.130Z,0.53
2019-04-25T16:09:06.589Z,1.30
2019-04-25T16:11:35.153Z,0.97
2019-04-25T16:14:03.777Z,1.13
2019-04-25T16:16:33.165Z,0.90
2019-04-25T16:19:01.837Z,1.13
2019-04-25T16:21:30.990Z,1.20
2019-04-25T16:23:59.598Z,0.90
2019-04-25T16:26:28.098Z,1.43
2019-04-25T16:28:56.463Z,1.20
2019-04-25T16:31:26.131Z,1.33
2019-04-25T16:33:54.623Z,0.90
2019-04-25T16:36:23.025Z,1.03
2019-04-25T16:38:51.530Z,1.17
2019-04-25T16:41:20.287Z,1.27
2019-04-25T16:43:50.333Z,1.20
2019-04-25T16:46:19.506Z,1.03
2019-04-25T16:48:47.920Z,1.37
2019-04-25T16:51:16.985Z,1.33
2019-04-25T16:53:45.465Z,1.40
2019-04-25T16:56:13.931Z,1.20
2019-04-25T16:58:42.414Z,1.33
2019-04-25T17:01:14.258Z,1.13
2019-04-25T17:03:43.498Z,1.13
2019-04-25T17:06:12.151Z,1.30
2019-04-25T17:08:40.579Z,1.27
2019-04-25T17:11:09.040Z,0.90
2019-04-25T17:13:39.092Z,1.10
2019-04-25T17:16:20.979Z,0.90
2019-04-25T17:18:53.513Z,1.07
2019-04-25T17:21:22.084Z,1.27
2019-04-25T17:23:50.912Z,1.10
2019-04-25T17:26:19.313Z,1.10
2019-04-25T17:28:49.367Z,1.10
2019-04-25T17:31:32.419Z,1.13
2019-04-25T17:34:19.344Z,1.07
2019-04-25T17:36:49.376Z,1.10
2019-04-25T17:39:22.286Z,1.10
2019-04-25T17:41:50.689Z,1.00
2019-04-25T17:44:19.073Z,1.10
2019-04-25T17:46:47.494Z,0.97
2019-04-25T17:49:15.890Z,1.27
2019-04-25T17:51:44.291Z,1.20
2019-04-25T17:54:12.691Z,1.70
2019-04-25T17:56:41.107Z,1.80
2019-04-25T17:59:09.532Z,1.30
2019-04-25T18:01:38.002Z,1.60
2019-04-25T18:04:06.479Z,1.70
2019-04-25T18:06:35.660Z,1.63
2019-04-25T18:09:05.591Z,3.50
2019-04-25T18:11:34.791Z,1.50
2019-04-25T18:14:03.270Z,1.90
2019-04-25T18:16:34.693Z,1.50
2019-04-25T18:19:07.410Z,2.40
2019-04-25T18:21:36.750Z,1.90
2019-04-25T18:24:09.853Z,1.90
2019-04-25T18:26:39.910Z,3.73
2019-04-25T18:29:09.926Z,3.60
2019-04-25T18:31:38.317Z,2.03
2019-04-25T18:34:17.272Z,2.40
2019-04-25T18:37:02.148Z,1.77
2019-04-25T18:39:32.175Z,3.03
2019-04-25T18:42:08.195Z,1.57
2019-04-25T18:44:36.726Z,2.20
2019-04-25T18:47:05.434Z,2.00
2019-04-25T18:49:33.845Z,1.80
2019-04-25T18:52:06.794Z,1.67
2019-04-25T18:54:39.558Z,1.50
2019-04-25T18:57:12.415Z,1.50
2019-04-25T18:59:46.009Z,1.30
2019-04-25T19:02:32.389Z,1.73
2019-04-25T19:05:05.209Z,1.93
2019-04-25T19:07:33.639Z,1.50
2019-04-25T19:10:02.038Z,2.13
2019-04-25T19:12:31.461Z,1.97
2019-04-25T19:14:59.897Z,1.70
2019-04-25T19:17:28.290Z,1.60
2019-04-25T19:19:56.692Z,1.93
2019-04-25T19:22:25.361Z,1.47
2019-04-25T19:24:53.750Z,1.50
2019-04-25T19:27:23.934Z,1.70
2019-04-25T19:29:53.449Z,1.10
2019-04-25T19:32:21.974Z,1.60
2019-04-25T19:34:53.354Z,1.40
2019-04-25T19:37:21.797Z,1.23
2019-04-25T19:40:08.413Z,1.50
2019-04-25T19:42:38.470Z,1.30
2019-04-25T19:45:07.474Z,1.57
2019-04-25T19:47:35.902Z,1.77
2019-04-25T19:50:05.226Z,1.43
2019-04-25T19:52:33.654Z,1.20
2019-04-25T19:55:02.086Z,1.50
2019-04-25T19:57:30.482Z,1.23
2019-04-25T19:59:58.952Z,1.23
2019-04-25T20:02:28.987Z,1.23
2019-04-25T20:04:59.038Z,1.33
2019-04-25T20:07:32.062Z,1.47
2019-04-25T20:10:11.607Z,1.23
2019-04-25T20:12:50.537Z,1.23
2019-04-25T20:15:17.753Z,0.90
2019-04-25T20:17:46.176Z,1.50
2019-04-25T20:20:14.629Z,1.30
2019-04-25T20:22:43.771Z,1.50
2019-04-25T20:25:13.660Z,0.87
2019-04-25T20:27:42.063Z,0.77
2019-04-25T20:30:10.717Z,1.00
2019-04-25T20:32:39.124Z,1.10
2019-04-25T20:35:07.755Z,1.10
2019-04-25T20:37:36.618Z,1.10
2019-04-25T20:40:07.142Z,1.17
2019-04-25T20:42:35.548Z,0.70
2019-04-25T20:45:06.087Z,0.80
2019-04-25T20:47:34.513Z,0.80
2019-04-25T20:50:03.181Z,1.00
2019-04-25T20:52:31.689Z,0.80
2019-04-25T20:55:00.138Z,0.80
2019-04-25T20:57:28.523Z,0.73
2019-04-25T20:59:56.927Z,0.70
2019-04-25T21:02:25.310Z,0.80
2019-04-25T21:04:54.225Z,0.70
2019-04-25T21:07:22.691Z,0.63
2019-04-25T21:09:51.244Z,0.97
2019-04-25T21:12:19.617Z,1.10
2019-04-25T21:14:52.785Z,0.70
2019-04-25T21:17:22.890Z,0.63
2019-04-25T21:19:52.947Z,0.93
2019-04-25T21:22:21.352Z,0.63
2019-04-25T21:24:50.539Z,0.80
2019-04-25T21:27:20.020Z,1.00
2019-04-25T21:29:48.507Z,0.80
2019-04-25T21:32:18.549Z,1.13
2019-04-25T21:34:46.964Z,0.70
2019-04-25T21:37:15.745Z,0.80
2019-04-25T21:39:55.858Z,1.00
2019-04-25T21:42:41.607Z,0.90
2019-04-25T21:45:10.527Z,0.77
2019-04-25T21:47:38.922Z,0.70
2019-04-25T21:50:07.747Z,0.80
2019-04-25T21:52:36.421Z,1.00
2019-04-25T21:55:06.861Z,1.30
2019-04-25T21:57:35.531Z,1.00
2019-04-25T22:00:09.209Z,1.10
2019-04-25T22:02:38.104Z,1.00
2019-04-25T22:05:07.128Z,1.23
2019-04-25T22:07:35.790Z,1.00
2019-04-25T22:10:06.925Z,1.03
2019-04-25T22:12:35.376Z,0.80
2019-04-25T22:15:06.381Z,0.90
2019-04-25T22:17:34.769Z,1.20
2019-04-25T22:20:04.796Z,1.23
2019-04-25T22:22:33.357Z,1.07
2019-04-25T22:25:02.589Z,1.17
2019-04-25T22:27:32.691Z,1.30
2019-04-25T22:30:01.470Z,0.80
2019-04-25T22:32:31.883Z,1.53
2019-04-25T22:35:01.931Z,1.23
2019-04-25T22:37:30.331Z,1.47
2019-04-25T22:39:59.856Z,1.10
2019-04-25T22:42:28.314Z,1.30
2019-04-25T22:44:56.784Z,1.30
2019-04-25T22:47:25.183Z,1.47
2019-04-25T22:49:53.582Z,1.30
2019-04-25T22:52:22.246Z,1.07
2019-04-25T22:54:50.659Z,1.47
2019-04-25T22:57:19.332Z,1.20
2019-04-25T22:59:47.734Z,1.27
2019-04-25T23:02:29.552Z,1.77
2019-04-25T23:05:09.118Z,1.20
2019-04-25T23:07:30.004Z,1.30
2019-04-25T23:09:58.946Z,1.33
2019-04-25T23:12:27.631Z,1.50
2019-04-25T23:14:56.031Z,1.53
2019-04-25T23:17:24.451Z,1.43
2019-04-25T23:19:53.124Z,1.33
2019-04-25T23:22:21.531Z,1.20
2019-04-25T23:24:54.962Z,1.50
2019-04-25T23:27:40.052Z,1.23
2019-04-25T23:30:10.349Z,1.40
2019-04-25T23:32:39.218Z,1.63
2019-04-25T23:35:22.147Z,1.50
2019-04-25T23:37:37.879Z,1.90
2019-04-25T23:40:07.660Z,2.93
2019-04-25T23:42:36.222Z,2.13
2019-04-25T23:45:07.990Z,1.20
2019-04-25T23:47:37.519Z,1.43
2019-04-25T23:50:08.667Z,1.50
2019-04-25T23:52:37.453Z,1.40
2019-04-25T23:55:06.951Z,1.33
2019-04-25T23:57:36.364Z,1.70
